SCX252 KBOS-KMSP
Flight info
| Callsign | SCX252 |
|---|---|
| Flight time | 2h 0m |
| Altitude | 36000 |
| Route | HYLND7 HYLND HANAA Q816 KELTI Q812 ZOHAN IDIOM MUSCL3 |
| Aircraft | B739/M-SDE2E3FGHIRWXY/LB1 |
Departure
| Time | 2026-05-04 00:08 |
|---|---|
| Airport | Boston Logan International Airport (KBOS) |
Arrival
| Time | 2026-05-04 02:08 |
|---|---|
| Airport | Minneapolis–Saint Paul International Airport / Wold–Chamberlain Field (KMSP) |
| Time | Latitude | Longitude | Altitude | Speed | Heading |
|---|---|---|---|---|---|
| 2026-05-03 23:43 | 42.37131 | -71.02013 | 24 ft | 0 kts | 212° |
| 2026-05-03 23:54 | 42.37144 | -71.02002 | 30 ft | 2 kts | 210° |
| 2026-05-03 23:54 | 42.37159 | -71.01992 | 27 ft | 2 kts | 207° |
| 2026-05-03 23:54 | 42.37173 | -71.01982 | 24 ft | 2 kts | 202° |
| 2026-05-03 23:55 | 42.37189 | -71.01974 | 28 ft | 2 kts | 194° |
| 2026-05-03 23:55 | 42.37205 | -71.01971 | 27 ft | 2 kts | 178° |
| 2026-05-03 23:55 | 42.37221 | -71.01976 | 28 ft | 2 kts | 141° |
| 2026-05-03 23:55 | 42.37230 | -71.01991 | 27 ft | 1 kts | 107° |
| 2026-05-03 23:56 | 42.37231 | -71.01996 | 28 ft | 0 kts | 102° |
| 2026-05-03 23:58 | 42.37228 | -71.01978 | 27 ft | 0 kts | 102° |
| 2026-05-03 23:58 | 42.37233 | -71.01961 | 27 ft | 9 kts | 65° |
| 2026-05-03 23:58 | 42.37285 | -71.01882 | 25 ft | 12 kts | 57° |
| 2026-05-03 23:58 | 42.37264 | -71.01784 | 26 ft | 12 kts | 133° |
| 2026-05-03 23:59 | 42.37208 | -71.01707 | 29 ft | 11 kts | 134° |
| 2026-05-03 23:59 | 42.37153 | -71.01633 | 24 ft | 11 kts | 135° |
| 2026-05-03 23:59 | 42.37097 | -71.01561 | 24 ft | 11 kts | 137° |
| 2026-05-03 23:59 | 42.37041 | -71.01487 | 24 ft | 12 kts | 134° |
| 2026-05-04 00:00 | 42.36980 | -71.01402 | 28 ft | 13 kts | 135° |
| 2026-05-04 00:00 | 42.36917 | -71.01317 | 24 ft | 13 kts | 135° |
| 2026-05-04 00:00 | 42.36850 | -71.01230 | 27 ft | 15 kts | 136° |
| 2026-05-04 00:00 | 42.36760 | -71.01146 | 25 ft | 16 kts | 168° |
| 2026-05-04 00:01 | 42.36653 | -71.01181 | 27 ft | 16 kts | 200° |
| 2026-05-04 00:01 | 42.36554 | -71.01231 | 29 ft | 15 kts | 201° |
| 2026-05-04 00:01 | 42.36457 | -71.01278 | 11 ft | 15 kts | 199° |
| 2026-05-04 00:01 | 42.36362 | -71.01316 | 27 ft | 14 kts | 177° |
| 2026-05-04 00:02 | 42.36297 | -71.01231 | 26 ft | 13 kts | 123° |
| 2026-05-04 00:02 | 42.36253 | -71.01124 | 26 ft | 13 kts | 115° |
| 2026-05-04 00:02 | 42.36216 | -71.01016 | 24 ft | 13 kts | 114° |
| 2026-05-04 00:02 | 42.36181 | -71.00910 | 26 ft | 12 kts | 114° |
| 2026-05-04 00:03 | 42.36141 | -71.00791 | 26 ft | 17 kts | 114° |
| 2026-05-04 00:03 | 42.36113 | -71.00695 | 25 ft | 16 kts | 110° |
| 2026-05-04 00:03 | 42.36076 | -71.00548 | 27 ft | 17 kts | 109° |
| 2026-05-04 00:03 | 42.36040 | -71.00403 | 27 ft | 16 kts | 109° |
| 2026-05-04 00:04 | 42.36004 | -71.00264 | 26 ft | 15 kts | 109° |
| 2026-05-04 00:04 | 42.35968 | -71.00131 | 28 ft | 15 kts | 115° |
| 2026-05-04 00:04 | 42.35895 | -71.00002 | 24 ft | 22 kts | 135° |
| 2026-05-04 00:04 | 42.35781 | -70.99852 | 24 ft | 23 kts | 135° |
| 2026-05-04 00:05 | 42.35671 | -70.99705 | 24 ft | 22 kts | 135° |
| 2026-05-04 00:05 | 42.35565 | -70.99561 | 27 ft | 21 kts | 135° |
| 2026-05-04 00:05 | 42.35502 | -70.99473 | 28 ft | 6 kts | 124° |
| 2026-05-04 00:05 | 42.35491 | -70.99392 | 24 ft | 4 kts | 79° |
| 2026-05-04 00:06 | 42.35503 | -70.99326 | 29 ft | 11 kts | 77° |
| 2026-05-04 00:06 | 42.35512 | -70.99261 | 24 ft | 3 kts | 43° |
| 2026-05-04 00:06 | 42.35538 | -70.99268 | 26 ft | 5 kts | 325° |
| 2026-05-04 00:06 | 42.35550 | -70.99281 | 24 ft | 0 kts | 316° |
| 2026-05-04 00:07 | 42.35631 | -70.99388 | 27 ft | 52 kts | 315° |
| 2026-05-04 00:07 | 42.36078 | -70.99986 | 22 ft | 125 kts | 315° |
| 2026-05-04 00:07 | 42.36812 | -71.00976 | 281 ft | 158 kts | 313° |
| 2026-05-04 00:08 | 42.37629 | -71.02010 | 1150 ft | 164 kts | 316° |
| 2026-05-04 00:08 | 42.38446 | -71.03099 | 2018 ft | 165 kts | 310° |
| 2026-05-04 00:08 | 42.39054 | -71.04436 | 2922 ft | 163 kts | 297° |
| 2026-05-04 00:08 | 42.39618 | -71.05840 | 3327 ft | 183 kts | 299° |
| 2026-05-04 00:09 | 42.40275 | -71.07439 | 3551 ft | 205 kts | 299° |
| 2026-05-04 00:09 | 42.41057 | -71.09128 | 3845 ft | 224 kts | 312° |
| 2026-05-04 00:09 | 42.42331 | -71.10465 | 4362 ft | 237 kts | 327° |
| 2026-05-04 00:09 | 42.43858 | -71.11359 | 5180 ft | 241 kts | 335° |
| 2026-05-04 00:10 | 42.45433 | -71.12174 | 6019 ft | 243 kts | 334° |
| 2026-05-04 00:10 | 42.47009 | -71.13012 | 6832 ft | 244 kts | 334° |
| 2026-05-04 00:10 | 42.48601 | -71.13872 | 7527 ft | 248 kts | 334° |
| 2026-05-04 00:10 | 42.50208 | -71.14742 | 8308 ft | 249 kts | 334° |
| 2026-05-04 00:11 | 42.51809 | -71.15592 | 9073 ft | 252 kts | 336° |
| 2026-05-04 00:11 | 42.53480 | -71.16365 | 9836 ft | 255 kts | 338° |
| 2026-05-04 00:11 | 42.55189 | -71.17128 | 10395 ft | 265 kts | 338° |
| 2026-05-04 00:11 | 42.57013 | -71.17944 | 10551 ft | 287 kts | 338° |
| 2026-05-04 00:12 | 42.58981 | -71.18829 | 10734 ft | 308 kts | 338° |
| 2026-05-04 00:12 | 42.61073 | -71.19772 | 11061 ft | 322 kts | 338° |
| 2026-05-04 00:12 | 42.63220 | -71.20738 | 11670 ft | 327 kts | 338° |
| 2026-05-04 00:12 | 42.65384 | -71.21715 | 12386 ft | 329 kts | 338° |
| 2026-05-04 00:13 | 42.67567 | -71.22704 | 13065 ft | 333 kts | 338° |
| 2026-05-04 00:13 | 42.69777 | -71.23708 | 13693 ft | 336 kts | 338° |
| 2026-05-04 00:13 | 42.72004 | -71.24721 | 14293 ft | 339 kts | 338° |
| 2026-05-04 00:13 | 42.74248 | -71.25743 | 14886 ft | 340 kts | 337° |
| 2026-05-04 00:14 | 42.76342 | -71.27174 | 15439 ft | 338 kts | 319° |
| 2026-05-04 00:14 | 42.77956 | -71.29498 | 16043 ft | 338 kts | 305° |
| 2026-05-04 00:14 | 42.79045 | -71.32291 | 16609 ft | 342 kts | 290° |
| 2026-05-04 00:14 | 42.79717 | -71.35412 | 17203 ft | 345 kts | 287° |
| 2026-05-04 00:15 | 42.80314 | -71.38594 | 17762 ft | 348 kts | 286° |
| 2026-05-04 00:15 | 42.80894 | -71.41809 | 18309 ft | 351 kts | 286° |
| 2026-05-04 00:15 | 42.81476 | -71.45054 | 18813 ft | 354 kts | 286° |
| 2026-05-04 00:15 | 42.82067 | -71.48314 | 19313 ft | 356 kts | 286° |
| 2026-05-04 00:16 | 42.82668 | -71.51598 | 19807 ft | 358 kts | 286° |
| 2026-05-04 00:16 | 42.83277 | -71.54900 | 20302 ft | 361 kts | 286° |
| 2026-05-04 00:16 | 42.83893 | -71.58228 | 20733 ft | 365 kts | 286° |
| 2026-05-04 00:16 | 42.84518 | -71.61594 | 21188 ft | 368 kts | 286° |
| 2026-05-04 00:17 | 42.85147 | -71.64979 | 21689 ft | 370 kts | 286° |
| 2026-05-04 00:17 | 42.85780 | -71.68390 | 22182 ft | 372 kts | 286° |
| 2026-05-04 00:17 | 42.86417 | -71.71824 | 22637 ft | 375 kts | 286° |
| 2026-05-04 00:17 | 42.87057 | -71.75282 | 23108 ft | 377 kts | 286° |
| 2026-05-04 00:18 | 42.87701 | -71.78761 | 23554 ft | 379 kts | 286° |
| 2026-05-04 00:18 | 42.88346 | -71.82259 | 23913 ft | 382 kts | 286° |
| 2026-05-04 00:18 | 42.88996 | -71.85784 | 24267 ft | 384 kts | 286° |
| 2026-05-04 00:18 | 42.89640 | -71.89285 | 24648 ft | 387 kts | 286° |
| 2026-05-04 00:19 | 42.90295 | -71.92855 | 24968 ft | 390 kts | 285° |
| 2026-05-04 00:19 | 42.90956 | -71.96465 | 25278 ft | 394 kts | 285° |
| 2026-05-04 00:19 | 42.91620 | -72.00096 | 25645 ft | 395 kts | 285° |
| 2026-05-04 00:19 | 42.92287 | -72.03752 | 26012 ft | 397 kts | 285° |
| 2026-05-04 00:20 | 42.92954 | -72.07418 | 26347 ft | 400 kts | 285° |
| 2026-05-04 00:20 | 42.93626 | -72.11114 | 26678 ft | 402 kts | 285° |
| 2026-05-04 00:20 | 42.94300 | -72.14829 | 27007 ft | 404 kts | 285° |
| 2026-05-04 00:20 | 42.94976 | -72.18564 | 27336 ft | 406 kts | 285° |
| 2026-05-04 00:21 | 42.95655 | -72.22320 | 27642 ft | 409 kts | 285° |
| 2026-05-04 00:21 | 42.96336 | -72.26096 | 27949 ft | 411 kts | 284° |
| 2026-05-04 00:21 | 42.97020 | -72.29902 | 28268 ft | 413 kts | 284° |
| 2026-05-04 00:21 | 42.97707 | -72.33725 | 28565 ft | 415 kts | 284° |
| 2026-05-04 00:22 | 42.98394 | -72.37561 | 28967 ft | 415 kts | 284° |
| 2026-05-04 00:22 | 42.99076 | -72.41377 | 29494 ft | 412 kts | 284° |
| 2026-05-04 00:22 | 42.99744 | -72.45124 | 29977 ft | 410 kts | 284° |
| 2026-05-04 00:22 | 43.00419 | -72.48910 | 30260 ft | 411 kts | 284° |
| 2026-05-04 00:23 | 43.01094 | -72.52712 | 30469 ft | 413 kts | 284° |
| 2026-05-04 00:23 | 43.01772 | -72.56530 | 30721 ft | 414 kts | 284° |
| 2026-05-04 00:23 | 43.02450 | -72.60363 | 31025 ft | 414 kts | 284° |
| 2026-05-04 00:23 | 43.03127 | -72.64194 | 31281 ft | 415 kts | 284° |
| 2026-05-04 00:24 | 43.03804 | -72.68040 | 31529 ft | 416 kts | 283° |
| 2026-05-04 00:24 | 43.04480 | -72.71881 | 31832 ft | 416 kts | 283° |
| 2026-05-04 00:24 | 43.05154 | -72.75724 | 32143 ft | 415 kts | 283° |
| 2026-05-04 00:24 | 43.05826 | -72.79563 | 32401 ft | 416 kts | 283° |
| 2026-05-04 00:25 | 43.06498 | -72.83410 | 32650 ft | 416 kts | 283° |
| 2026-05-04 00:25 | 43.07169 | -72.87256 | 32919 ft | 416 kts | 283° |
| 2026-05-04 00:25 | 43.07840 | -72.91112 | 33185 ft | 416 kts | 283° |
| 2026-05-04 00:25 | 43.08509 | -72.94964 | 33441 ft | 416 kts | 283° |
| 2026-05-04 00:26 | 43.09176 | -72.98819 | 33595 ft | 418 kts | 283° |
| 2026-05-04 00:26 | 43.09839 | -73.02653 | 33737 ft | 420 kts | 283° |
| 2026-05-04 00:26 | 43.10510 | -73.06540 | 33993 ft | 419 kts | 283° |
| 2026-05-04 00:26 | 43.11177 | -73.10414 | 34248 ft | 418 kts | 283° |
| 2026-05-04 00:27 | 43.11842 | -73.14288 | 34437 ft | 418 kts | 283° |
| 2026-05-04 00:27 | 43.12508 | -73.18175 | 34572 ft | 420 kts | 282° |
| 2026-05-04 00:27 | 43.13173 | -73.22065 | 34751 ft | 420 kts | 282° |
| 2026-05-04 00:27 | 43.13837 | -73.25957 | 34961 ft | 419 kts | 282° |
| 2026-05-04 00:28 | 43.14499 | -73.29843 | 35159 ft | 419 kts | 282° |
| 2026-05-04 00:28 | 43.15160 | -73.33735 | 35253 ft | 421 kts | 282° |
| 2026-05-04 00:28 | 43.16487 | -73.41579 | 35511 ft | 423 kts | 282° |
| 2026-05-04 00:29 | 43.17149 | -73.45496 | 35730 ft | 422 kts | 282° |
| 2026-05-04 00:29 | 43.17808 | -73.49411 | 35860 ft | 422 kts | 282° |
| 2026-05-04 00:29 | 43.19128 | -73.57277 | 35864 ft | 424 kts | 282° |
| 2026-05-04 00:30 | 43.20203 | -73.65177 | 35876 ft | 420 kts | 276° |
| 2026-05-04 00:30 | 43.20762 | -73.73140 | 35866 ft | 419 kts | 275° |
| 2026-05-04 00:31 | 43.21293 | -73.81082 | 35875 ft | 417 kts | 275° |
| 2026-05-04 00:31 | 43.21849 | -73.88943 | 35866 ft | 417 kts | 275° |
| 2026-05-04 00:32 | 43.22421 | -73.96840 | 35884 ft | 416 kts | 275° |
| 2026-05-04 00:32 | 43.22992 | -74.04755 | 35889 ft | 417 kts | 275° |
| 2026-05-04 00:33 | 43.23838 | -74.16656 | 35887 ft | 418 kts | 275° |
| 2026-05-04 00:34 | 43.24397 | -74.24606 | 35888 ft | 419 kts | 275° |
| 2026-05-04 00:34 | 43.24951 | -74.32583 | 35885 ft | 420 kts | 275° |
| 2026-05-04 00:35 | 43.25281 | -74.40576 | 35894 ft | 420 kts | 272° |
| 2026-05-04 00:35 | 43.25458 | -74.48590 | 35890 ft | 420 kts | 272° |
| 2026-05-04 00:36 | 43.25635 | -74.56600 | 35892 ft | 420 kts | 272° |
| 2026-05-04 00:36 | 43.25826 | -74.64597 | 35897 ft | 419 kts | 272° |
| 2026-05-04 00:37 | 43.26022 | -74.72585 | 35896 ft | 418 kts | 272° |
| 2026-05-04 00:37 | 43.26213 | -74.80554 | 35900 ft | 418 kts | 272° |
| 2026-05-04 00:38 | 43.26400 | -74.88524 | 35907 ft | 418 kts | 272° |
| 2026-05-04 00:38 | 43.26579 | -74.96435 | 35901 ft | 417 kts | 272° |
| 2026-05-04 00:39 | 43.26754 | -75.04390 | 35913 ft | 417 kts | 272° |
| 2026-05-04 00:39 | 43.26923 | -75.12351 | 35912 ft | 417 kts | 272° |
| 2026-05-04 00:40 | 43.27086 | -75.20303 | 35921 ft | 417 kts | 272° |
| 2026-05-04 00:40 | 43.27244 | -75.28258 | 35926 ft | 417 kts | 272° |
| 2026-05-04 00:41 | 43.27397 | -75.36219 | 35927 ft | 417 kts | 272° |
| 2026-05-04 00:41 | 43.27543 | -75.44139 | 35933 ft | 418 kts | 272° |
| 2026-05-04 00:42 | 43.27685 | -75.52111 | 35924 ft | 418 kts | 272° |
| 2026-05-04 00:42 | 43.27821 | -75.60078 | 35923 ft | 418 kts | 272° |
| 2026-05-04 00:43 | 43.27951 | -75.68054 | 35918 ft | 418 kts | 272° |
| 2026-05-04 00:43 | 43.28076 | -75.76027 | 35914 ft | 418 kts | 272° |
| 2026-05-04 00:44 | 43.28196 | -75.84002 | 35908 ft | 417 kts | 271° |
| 2026-05-04 00:44 | 43.28310 | -75.91963 | 35900 ft | 417 kts | 271° |
| 2026-05-04 00:45 | 43.28418 | -75.99925 | 35888 ft | 417 kts | 271° |
| 2026-05-04 00:45 | 43.28521 | -76.07877 | 35892 ft | 416 kts | 271° |
| 2026-05-04 00:46 | 43.28618 | -76.15829 | 35890 ft | 416 kts | 271° |
| 2026-05-04 00:46 | 43.28710 | -76.23769 | 35881 ft | 416 kts | 271° |
| 2026-05-04 00:47 | 43.28796 | -76.31701 | 35879 ft | 415 kts | 271° |
| 2026-05-04 00:47 | 43.28876 | -76.39625 | 35881 ft | 415 kts | 271° |
| 2026-05-04 00:48 | 43.28952 | -76.47546 | 35879 ft | 415 kts | 271° |
| 2026-05-04 00:48 | 43.29022 | -76.55464 | 35891 ft | 415 kts | 271° |
| 2026-05-04 00:49 | 43.29086 | -76.63336 | 35887 ft | 415 kts | 271° |
| 2026-05-04 00:49 | 43.29175 | -76.71255 | 35895 ft | 415 kts | 272° |
| 2026-05-04 00:50 | 43.29301 | -76.79178 | 35901 ft | 415 kts | 272° |
| 2026-05-04 00:50 | 43.29422 | -76.87095 | 35895 ft | 415 kts | 272° |
| 2026-05-04 00:51 | 43.29534 | -76.95010 | 35912 ft | 415 kts | 272° |
| 2026-05-04 00:51 | 43.29637 | -77.02929 | 35918 ft | 414 kts | 272° |
| 2026-05-04 00:52 | 43.29734 | -77.10837 | 35905 ft | 414 kts | 272° |
| 2026-05-04 00:52 | 43.29810 | -77.17408 | 35915 ft | 414 kts | 272° |
| 2026-05-04 00:53 | 43.29911 | -77.26592 | 35909 ft | 414 kts | 272° |
| 2026-05-04 00:53 | 43.29992 | -77.34484 | 35909 ft | 413 kts | 272° |
| 2026-05-04 00:54 | 43.30055 | -77.41044 | 35902 ft | 413 kts | 272° |
| 2026-05-04 00:54 | 43.30125 | -77.48927 | 35900 ft | 413 kts | 271° |
| 2026-05-04 00:55 | 43.30191 | -77.56779 | 35900 ft | 414 kts | 271° |
| 2026-05-04 00:55 | 43.30251 | -77.64728 | 35910 ft | 418 kts | 271° |
| 2026-05-04 00:56 | 43.30307 | -77.72770 | 35907 ft | 423 kts | 271° |
| 2026-05-04 00:56 | 43.30357 | -77.80884 | 35907 ft | 427 kts | 271° |
| 2026-05-04 00:57 | 43.30402 | -77.89024 | 35888 ft | 430 kts | 271° |
| 2026-05-04 00:57 | 43.30441 | -77.97275 | 35880 ft | 433 kts | 271° |
| 2026-05-04 00:58 | 43.30476 | -78.05557 | 35879 ft | 434 kts | 271° |
| 2026-05-04 00:58 | 43.30500 | -78.13859 | 35879 ft | 435 kts | 271° |
| 2026-05-04 00:59 | 43.30332 | -78.22143 | 35879 ft | 436 kts | 269° |
| 2026-05-04 00:59 | 43.30082 | -78.30469 | 35883 ft | 437 kts | 269° |
| 2026-05-04 01:00 | 43.29847 | -78.38814 | 35880 ft | 437 kts | 269° |
| 2026-05-04 01:00 | 43.29623 | -78.47160 | 35885 ft | 437 kts | 269° |
| 2026-05-04 01:01 | 43.29398 | -78.55513 | 35885 ft | 438 kts | 269° |
| 2026-05-04 01:01 | 43.29166 | -78.63860 | 35882 ft | 438 kts | 269° |
| 2026-05-04 01:02 | 43.28928 | -78.72210 | 35880 ft | 438 kts | 269° |
| 2026-05-04 01:02 | 43.28684 | -78.80565 | 35883 ft | 438 kts | 269° |
| 2026-05-04 01:03 | 43.28434 | -78.88913 | 35876 ft | 438 kts | 269° |
| 2026-05-04 01:03 | 43.28251 | -78.97264 | 35868 ft | 437 kts | 272° |
| 2026-05-04 01:04 | 43.28371 | -79.05605 | 35866 ft | 437 kts | 272° |
| 2026-05-04 01:04 | 43.28765 | -79.13918 | 35854 ft | 435 kts | 282° |
| 2026-05-04 01:05 | 43.30545 | -79.21835 | 35862 ft | 434 kts | 289° |
| 2026-05-04 01:05 | 43.32494 | -79.29635 | 35866 ft | 435 kts | 289° |
| 2026-05-04 01:06 | 43.34430 | -79.37509 | 35870 ft | 435 kts | 288° |
| 2026-05-04 01:06 | 43.36338 | -79.45396 | 35860 ft | 434 kts | 288° |
| 2026-05-04 01:07 | 43.38220 | -79.53239 | 35849 ft | 431 kts | 288° |
| 2026-05-04 01:07 | 43.40094 | -79.61087 | 35857 ft | 432 kts | 288° |
| 2026-05-04 01:08 | 43.41965 | -79.68941 | 35855 ft | 432 kts | 288° |
| 2026-05-04 01:08 | 43.43829 | -79.76802 | 35852 ft | 432 kts | 288° |
| 2026-05-04 01:09 | 43.45689 | -79.84665 | 35855 ft | 431 kts | 288° |
| 2026-05-04 01:09 | 43.47519 | -79.92433 | 35854 ft | 429 kts | 288° |
| 2026-05-04 01:10 | 43.49358 | -80.00265 | 35849 ft | 430 kts | 288° |
| 2026-05-04 01:10 | 43.51194 | -80.08108 | 35850 ft | 430 kts | 288° |
| 2026-05-04 01:11 | 43.53022 | -80.15949 | 35846 ft | 430 kts | 288° |
| 2026-05-04 01:11 | 43.54848 | -80.23807 | 35834 ft | 430 kts | 288° |
| 2026-05-04 01:12 | 43.56669 | -80.31675 | 35838 ft | 431 kts | 288° |
| 2026-05-04 01:12 | 43.58486 | -80.39551 | 35835 ft | 431 kts | 288° |
| 2026-05-04 01:13 | 43.60299 | -80.47439 | 35868 ft | 431 kts | 288° |
| 2026-05-04 01:13 | 43.62108 | -80.55336 | 35863 ft | 432 kts | 288° |
| 2026-05-04 01:14 | 43.63903 | -80.63199 | 35862 ft | 432 kts | 287° |
| 2026-05-04 01:14 | 43.65704 | -80.71119 | 35872 ft | 433 kts | 287° |
| 2026-05-04 01:15 | 43.67514 | -80.79110 | 35859 ft | 434 kts | 287° |
| 2026-05-04 01:15 | 43.69312 | -80.87072 | 35857 ft | 434 kts | 287° |
| 2026-05-04 01:16 | 43.71092 | -80.94988 | 35846 ft | 434 kts | 287° |
| 2026-05-04 01:16 | 43.72880 | -81.02966 | 35852 ft | 434 kts | 287° |
| 2026-05-04 01:17 | 43.74663 | -81.10954 | 35843 ft | 435 kts | 287° |
| 2026-05-04 01:17 | 43.76440 | -81.18944 | 35846 ft | 435 kts | 287° |
| 2026-05-04 01:18 | 43.78212 | -81.26939 | 35836 ft | 435 kts | 287° |
| 2026-05-04 01:18 | 43.79981 | -81.34952 | 35832 ft | 435 kts | 287° |
| 2026-05-04 01:19 | 43.81731 | -81.42908 | 35829 ft | 435 kts | 287° |
| 2026-05-04 01:19 | 43.83488 | -81.50927 | 35820 ft | 435 kts | 287° |
| 2026-05-04 01:20 | 43.85238 | -81.58944 | 35821 ft | 435 kts | 287° |
| 2026-05-04 01:20 | 43.86984 | -81.66972 | 35803 ft | 435 kts | 287° |
| 2026-05-04 01:21 | 43.88722 | -81.74996 | 35804 ft | 433 kts | 287° |
| 2026-05-04 01:21 | 43.90451 | -81.83007 | 35805 ft | 433 kts | 287° |
| 2026-05-04 01:22 | 43.92173 | -81.91016 | 35804 ft | 433 kts | 287° |
| 2026-05-04 01:22 | 43.93890 | -81.99033 | 35798 ft | 434 kts | 287° |
| 2026-05-04 01:23 | 43.95592 | -82.07009 | 35804 ft | 434 kts | 287° |
| 2026-05-04 01:23 | 43.97300 | -82.15040 | 35794 ft | 434 kts | 287° |
| 2026-05-04 01:24 | 43.98401 | -82.23283 | 35791 ft | 436 kts | 275° |
| 2026-05-04 01:24 | 43.98375 | -82.31717 | 35792 ft | 438 kts | 270° |
| 2026-05-04 01:25 | 43.98119 | -82.40152 | 35782 ft | 438 kts | 270° |
| 2026-05-04 01:25 | 43.97800 | -82.54215 | 35780 ft | 437 kts | 271° |
| 2026-05-04 01:26 | 43.97511 | -82.71070 | 35793 ft | 437 kts | 271° |
| 2026-05-04 01:26 | 43.97200 | -82.87934 | 35799 ft | 437 kts | 271° |
| 2026-05-04 01:27 | 43.96862 | -83.04787 | 35792 ft | 437 kts | 271° |
| 2026-05-04 01:27 | 43.96501 | -83.21566 | 35785 ft | 437 kts | 271° |
| 2026-05-04 01:28 | 43.96113 | -83.38429 | 35784 ft | 437 kts | 271° |
| 2026-05-04 01:28 | 43.95700 | -83.55310 | 35781 ft | 437 kts | 271° |
| 2026-05-04 01:29 | 43.95263 | -83.72173 | 35789 ft | 437 kts | 271° |
| 2026-05-04 01:29 | 43.94801 | -83.89022 | 35794 ft | 437 kts | 270° |
| 2026-05-04 01:30 | 43.94315 | -84.05863 | 35797 ft | 437 kts | 270° |
| 2026-05-04 01:30 | 43.93804 | -84.22711 | 35802 ft | 437 kts | 270° |
| 2026-05-04 01:31 | 43.93499 | -84.39569 | 35764 ft | 434 kts | 279° |
| 2026-05-04 01:31 | 43.96106 | -84.55832 | 35772 ft | 432 kts | 285° |
| 2026-05-04 01:32 | 43.98772 | -84.72138 | 35768 ft | 433 kts | 284° |
| 2026-05-04 01:32 | 44.01375 | -84.88335 | 35786 ft | 433 kts | 284° |
| 2026-05-04 01:33 | 44.03978 | -85.04686 | 35786 ft | 433 kts | 284° |
| 2026-05-04 01:33 | 44.06560 | -85.21059 | 35771 ft | 433 kts | 284° |
| 2026-05-04 01:34 | 44.09115 | -85.37432 | 35757 ft | 433 kts | 284° |
| 2026-05-04 01:34 | 44.11649 | -85.53829 | 35762 ft | 433 kts | 284° |
| 2026-05-04 01:35 | 44.14159 | -85.70232 | 35751 ft | 433 kts | 284° |
| 2026-05-04 01:35 | 44.16624 | -85.86516 | 35735 ft | 430 kts | 284° |
| 2026-05-04 01:36 | 44.19065 | -86.02800 | 35742 ft | 429 kts | 284° |
| 2026-05-04 01:36 | 44.21480 | -86.19079 | 35733 ft | 429 kts | 284° |
| 2026-05-04 01:37 | 44.25939 | -86.49525 | 35718 ft | 429 kts | 284° |
| 2026-05-04 01:37 | 44.29895 | -86.77151 | 35718 ft | 428 kts | 284° |
| 2026-05-04 01:38 | 44.32192 | -86.93444 | 35716 ft | 427 kts | 284° |
| 2026-05-04 01:38 | 44.34469 | -87.09732 | 35716 ft | 427 kts | 284° |
| 2026-05-04 01:39 | 44.36722 | -87.26031 | 35697 ft | 427 kts | 284° |
| 2026-05-04 01:39 | 44.38955 | -87.42357 | 35688 ft | 427 kts | 284° |
| 2026-05-04 01:40 | 44.41152 | -87.58604 | 35683 ft | 428 kts | 284° |
| 2026-05-04 01:40 | 44.43340 | -87.74979 | 35663 ft | 428 kts | 283° |
| 2026-05-04 01:41 | 44.45503 | -87.91348 | 35677 ft | 428 kts | 283° |
| 2026-05-04 01:41 | 44.47647 | -88.07758 | 35671 ft | 428 kts | 283° |
| 2026-05-04 01:42 | 44.49411 | -88.21399 | 35683 ft | 427 kts | 283° |
| 2026-05-04 01:42 | 44.52612 | -88.40151 | 35691 ft | 424 kts | 291° |
| 2026-05-04 01:43 | 44.56310 | -88.55875 | 35703 ft | 424 kts | 290° |
| 2026-05-04 01:43 | 44.59236 | -88.68968 | 35713 ft | 424 kts | 289° |
| 2026-05-04 01:44 | 44.62720 | -88.84773 | 35717 ft | 424 kts | 289° |
| 2026-05-04 01:44 | 44.66125 | -89.00335 | 35678 ft | 404 kts | 289° |
| 2026-05-04 01:45 | 44.69352 | -89.15175 | 35706 ft | 392 kts | 289° |
| 2026-05-04 01:45 | 44.74082 | -89.37108 | 35722 ft | 394 kts | 289° |
| 2026-05-04 01:46 | 44.77284 | -89.52094 | 35718 ft | 404 kts | 289° |
| 2026-05-04 01:46 | 44.80497 | -89.67249 | 35702 ft | 402 kts | 289° |
| 2026-05-04 01:47 | 44.83630 | -89.82138 | 35703 ft | 391 kts | 289° |
| 2026-05-04 01:47 | 44.86664 | -89.96644 | 35731 ft | 390 kts | 289° |
| 2026-05-04 01:48 | 44.89525 | -90.11631 | 35731 ft | 404 kts | 281° |
| 2026-05-04 01:48 | 44.90757 | -90.27513 | 35719 ft | 406 kts | 279° |
| 2026-05-04 01:49 | 44.92066 | -90.43066 | 35701 ft | 395 kts | 280° |
| 2026-05-04 01:49 | 44.92722 | -90.50694 | 35393 ft | 389 kts | 280° |
| 2026-05-04 01:49 | 44.93361 | -90.58194 | 34496 ft | 380 kts | 281° |
| 2026-05-04 01:50 | 44.93980 | -90.65524 | 33595 ft | 373 kts | 281° |
| 2026-05-04 01:50 | 44.94584 | -90.72739 | 32557 ft | 366 kts | 281° |
| 2026-05-04 01:50 | 44.95173 | -90.79815 | 31568 ft | 360 kts | 281° |
| 2026-05-04 01:50 | 44.95748 | -90.86763 | 30698 ft | 353 kts | 282° |
| 2026-05-04 01:51 | 44.96309 | -90.93586 | 29857 ft | 347 kts | 282° |
| 2026-05-04 01:51 | 44.96856 | -91.00283 | 28935 ft | 340 kts | 282° |
| 2026-05-04 01:51 | 44.97389 | -91.06854 | 28077 ft | 333 kts | 282° |
| 2026-05-04 01:51 | 44.97905 | -91.13273 | 27274 ft | 325 kts | 282° |
| 2026-05-04 01:52 | 44.98407 | -91.19544 | 26500 ft | 318 kts | 281° |
| 2026-05-04 01:52 | 44.98895 | -91.25681 | 25772 ft | 311 kts | 281° |
| 2026-05-04 01:52 | 44.99369 | -91.31695 | 25055 ft | 305 kts | 281° |
| 2026-05-04 01:52 | 44.99834 | -91.37601 | 24321 ft | 300 kts | 281° |
| 2026-05-04 01:53 | 45.00287 | -91.43424 | 23595 ft | 296 kts | 280° |
| 2026-05-04 01:53 | 45.00728 | -91.49159 | 22851 ft | 291 kts | 280° |
| 2026-05-04 01:53 | 45.01158 | -91.54793 | 22105 ft | 285 kts | 279° |
| 2026-05-04 01:53 | 45.01570 | -91.60218 | 21445 ft | 278 kts | 279° |
| 2026-05-04 01:54 | 45.01984 | -91.65688 | 20784 ft | 275 kts | 279° |
| 2026-05-04 01:54 | 45.02387 | -91.71016 | 20149 ft | 278 kts | 279° |
| 2026-05-04 01:54 | 45.02798 | -91.76527 | 19481 ft | 287 kts | 279° |
| 2026-05-04 01:54 | 45.03217 | -91.82202 | 18766 ft | 290 kts | 278° |
| 2026-05-04 01:55 | 45.03631 | -91.87842 | 18032 ft | 287 kts | 278° |
| 2026-05-04 01:55 | 45.04038 | -91.93430 | 17238 ft | 284 kts | 278° |
| 2026-05-04 01:55 | 45.04434 | -91.98897 | 16663 ft | 275 kts | 278° |
| 2026-05-04 01:55 | 45.04817 | -92.04212 | 16103 ft | 268 kts | 278° |
| 2026-05-04 01:56 | 45.05190 | -92.09410 | 15464 ft | 263 kts | 278° |
| 2026-05-04 01:56 | 45.05554 | -92.14509 | 14839 ft | 259 kts | 278° |
| 2026-05-04 01:56 | 45.05909 | -92.19543 | 14212 ft | 255 kts | 278° |
| 2026-05-04 01:56 | 45.05639 | -92.24538 | 13557 ft | 257 kts | 261° |
| 2026-05-04 01:57 | 45.04830 | -92.29447 | 12887 ft | 254 kts | 261° |
| 2026-05-04 01:57 | 45.04055 | -92.34276 | 12265 ft | 249 kts | 261° |
| 2026-05-04 01:57 | 45.03300 | -92.39036 | 11664 ft | 248 kts | 261° |
| 2026-05-04 01:57 | 45.02543 | -92.43833 | 11074 ft | 253 kts | 261° |
| 2026-05-04 01:58 | 45.01768 | -92.48745 | 10456 ft | 260 kts | 260° |
| 2026-05-04 01:58 | 45.00983 | -92.53685 | 9975 ft | 251 kts | 260° |
| 2026-05-04 01:58 | 44.99732 | -92.58242 | 9304 ft | 258 kts | 232° |
| 2026-05-04 01:58 | 44.97172 | -92.61769 | 8695 ft | 256 kts | 229° |
| 2026-05-04 01:59 | 44.94613 | -92.65245 | 8045 ft | 254 kts | 228° |
| 2026-05-04 01:59 | 44.92085 | -92.68699 | 7423 ft | 252 kts | 228° |
| 2026-05-04 01:59 | 44.89606 | -92.72084 | 6987 ft | 247 kts | 227° |
| 2026-05-04 01:59 | 44.87240 | -92.75306 | 6952 ft | 225 kts | 228° |
| 2026-05-04 02:00 | 44.85742 | -92.78736 | 6697 ft | 195 kts | 249° |
| 2026-05-04 02:00 | 44.84696 | -92.82072 | 6274 ft | 177 kts | 249° |
| 2026-05-04 02:00 | 44.83710 | -92.85181 | 5853 ft | 173 kts | 248° |
| 2026-05-04 02:00 | 44.82728 | -92.88260 | 5469 ft | 171 kts | 248° |
| 2026-05-04 02:01 | 44.81752 | -92.91314 | 5092 ft | 170 kts | 248° |
| 2026-05-04 02:01 | 44.80781 | -92.94337 | 4708 ft | 168 kts | 248° |
| 2026-05-04 02:01 | 44.79820 | -92.97320 | 4337 ft | 166 kts | 248° |
| 2026-05-04 02:01 | 44.79094 | -93.00345 | 3892 ft | 165 kts | 280° |
| 2026-05-04 02:02 | 44.80231 | -93.03075 | 3551 ft | 165 kts | 294° |
| 2026-05-04 02:02 | 44.80976 | -93.05010 | 3278 ft | 170 kts | 296° |
| 2026-05-04 02:02 | 44.81776 | -93.07058 | 2955 ft | 175 kts | 297° |
| 2026-05-04 02:02 | 44.82594 | -93.09085 | 2607 ft | 172 kts | 297° |
| 2026-05-04 02:03 | 44.83294 | -93.10707 | 2355 ft | 167 kts | 299° |
| 2026-05-04 02:03 | 44.83597 | -93.11398 | 2250 ft | 165 kts | 299° |
| 2026-05-04 02:03 | 44.83892 | -93.12074 | 2145 ft | 164 kts | 298° |
| 2026-05-04 02:03 | 44.84188 | -93.12760 | 2040 ft | 165 kts | 298° |
| 2026-05-04 02:04 | 44.84487 | -93.13455 | 1949 ft | 166 kts | 298° |
| 2026-05-04 02:04 | 44.84789 | -93.14157 | 1831 ft | 168 kts | 298° |
| 2026-05-04 02:04 | 44.85094 | -93.14866 | 1720 ft | 170 kts | 299° |
| 2026-05-04 02:04 | 44.85396 | -93.15566 | 1613 ft | 168 kts | 299° |
| 2026-05-04 02:05 | 44.85692 | -93.16254 | 1483 ft | 162 kts | 300° |
| 2026-05-04 02:05 | 44.85979 | -93.16918 | 1406 ft | 158 kts | 300° |
| 2026-05-04 02:05 | 44.86266 | -93.17585 | 1273 ft | 160 kts | 300° |
| 2026-05-04 02:05 | 44.86549 | -93.18242 | 1171 ft | 154 kts | 299° |
| 2026-05-04 02:06 | 44.86821 | -93.18875 | 1074 ft | 152 kts | 300° |
| 2026-05-04 02:06 | 44.87094 | -93.19511 | 978 ft | 151 kts | 299° |
| 2026-05-04 02:06 | 44.87365 | -93.20144 | 866 ft | 149 kts | 300° |
| 2026-05-04 02:06 | 44.87630 | -93.20755 | 828 ft | 140 kts | 300° |
| 2026-05-04 02:07 | 44.87891 | -93.21362 | 823 ft | 127 kts | 301° |
| 2026-05-04 02:07 | 44.88105 | -93.21855 | 819 ft | 109 kts | 301° |
| 2026-05-04 02:07 | 44.88287 | -93.22276 | 823 ft | 92 kts | 301° |
| 2026-05-04 02:07 | 44.88362 | -93.22613 | 823 ft | 60 kts | 255° |
| 2026-05-04 02:08 | 44.88322 | -93.22701 | 823 ft | 3 kts | 166° |
| 2026-05-04 02:08 | 44.88319 | -93.22694 | 824 ft | 0 kts | 118° |
| 2026-05-04 02:09 | 44.88318 | -93.22691 | 824 ft | 3 kts | 111° |
| 2026-05-04 02:10 | 44.88311 | -93.22654 | 823 ft | 12 kts | 107° |
| 2026-05-04 02:10 | 44.88288 | -93.22582 | 824 ft | 20 kts | 121° |
| 2026-05-04 02:10 | 44.88248 | -93.22491 | 824 ft | 22 kts | 121° |
| 2026-05-04 02:10 | 44.88207 | -93.22397 | 825 ft | 22 kts | 122° |
| 2026-05-04 02:11 | 44.88168 | -93.22307 | 823 ft | 22 kts | 122° |
| 2026-05-04 02:11 | 44.88127 | -93.22217 | 825 ft | 21 kts | 131° |
| 2026-05-04 02:11 | 44.88073 | -93.22216 | 825 ft | 17 kts | 227° |
| 2026-05-04 02:11 | 44.88035 | -93.22278 | 824 ft | 17 kts | 227° |
| 2026-05-04 02:12 | 44.87987 | -93.22349 | 821 ft | 19 kts | 225° |
| 2026-05-04 02:12 | 44.87850 | -93.22543 | 823 ft | 21 kts | 225° |
| 2026-05-04 02:12 | 44.87798 | -93.22617 | 822 ft | 23 kts | 225° |
| 2026-05-04 02:12 | 44.87732 | -93.22709 | 824 ft | 28 kts | 225° |
| 2026-05-04 02:13 | 44.87687 | -93.22726 | 824 ft | 9 kts | 146° |
| 2026-05-04 02:13 | 44.87664 | -93.22698 | 823 ft | 9 kts | 140° |
| 2026-05-04 02:13 | 44.87642 | -93.22669 | 824 ft | 9 kts | 135° |
| 2026-05-04 02:13 | 44.87632 | -93.22654 | 824 ft | 0 kts | 133° |